sensor_id;sensor_type;location;lat;lon;timestamp;P1;durP1;ratioP1;P2;durP2;ratioP2
50563;SDS011;36514;52.590;21.448;2024-03-07T07:17:54;30.89;;;17.44;;
50563;SDS011;36514;52.590;21.448;2024-03-07T07:28:02;23.63;;;14.59;;
50563;SDS011;36514;52.590;21.448;2024-03-07T07:38:00;19.77;;;12.93;;
50563;SDS011;36514;52.590;21.448;2024-03-07T07:48:04;23.60;;;16.16;;
50563;SDS011;36514;52.590;21.448;2024-03-07T07:58:02;22.02;;;9.82;;
50563;SDS011;36514;52.590;21.448;2024-03-07T08:08:07;12.92;;;10.60;;
50563;SDS011;36514;52.590;21.448;2024-03-07T08:18:05;12.50;;;9.13;;
50563;SDS011;36514;52.590;21.448;2024-03-07T08:28:02;11.48;;;9.77;;
50563;SDS011;36514;52.590;21.448;2024-03-07T08:38:06;11.72;;;10.14;;
50563;SDS011;36514;52.590;21.448;2024-03-07T08:48:08;14.52;;;11.97;;
50563;SDS011;36514;52.590;21.448;2024-03-07T08:58:04;10.55;;;9.45;;
50563;SDS011;36514;52.590;21.448;2024-03-07T09:08:00;12.48;;;9.00;;
50563;SDS011;36514;52.590;21.448;2024-03-07T09:18:01;14.27;;;12.16;;
50563;SDS011;36514;52.590;21.448;2024-03-07T09:27:56;15.98;;;9.13;;
50563;SDS011;36514;52.590;21.448;2024-03-07T09:37:54;9.10;;;8.20;;
50563;SDS011;36514;52.590;21.448;2024-03-07T09:47:49;9.13;;;8.23;;
50563;SDS011;36514;52.590;21.448;2024-03-07T09:57:51;12.75;;;11.35;;
50563;SDS011;36514;52.590;21.448;2024-03-07T10:07:47;12.75;;;10.23;;
50563;SDS011;36514;52.590;21.448;2024-03-07T10:17:45;11.30;;;9.98;;
50563;SDS011;36514;52.590;21.448;2024-03-07T10:27:41;12.50;;;9.55;;
50563;SDS011;36514;52.590;21.448;2024-03-07T10:37:38;10.45;;;9.30;;
50563;SDS011;36514;52.590;21.448;2024-03-07T10:47:34;9.40;;;8.55;;
50563;SDS011;36514;52.590;21.448;2024-03-07T10:57:46;11.02;;;9.49;;
50563;SDS011;36514;52.590;21.448;2024-03-07T11:07:45;10.71;;;9.60;;
50563;SDS011;36514;52.590;21.448;2024-03-07T11:17:39;10.75;;;9.57;;
50563;SDS011;36514;52.590;21.448;2024-03-07T11:27:38;10.88;;;9.95;;
50563;SDS011;36514;52.590;21.448;2024-03-07T11:37:38;10.38;;;9.32;;
50563;SDS011;36514;52.590;21.448;2024-03-07T11:47:38;11.63;;;10.55;;
50563;SDS011;36514;52.590;21.448;2024-03-07T11:57:31;9.88;;;8.88;;
50563;SDS011;36514;52.590;21.448;2024-03-07T12:07:26;10.10;;;9.07;;
50563;SDS011;36514;52.590;21.448;2024-03-07T12:17:24;18.15;;;16.33;;
50563;SDS011;36514;52.590;21.448;2024-03-07T12:27:17;11.23;;;10.13;;
50563;SDS011;36514;52.590;21.448;2024-03-07T12:37:17;11.82;;;10.64;;
50563;SDS011;36514;52.590;21.448;2024-03-07T12:47:17;13.56;;;10.87;;
50563;SDS011;36514;52.590;21.448;2024-03-07T12:57:08;9.60;;;8.35;;
50563;SDS011;36514;52.590;21.448;2024-03-07T13:07:06;11.42;;;10.29;;
50563;SDS011;36514;52.590;21.448;2024-03-07T13:17:01;13.13;;;11.82;;
50563;SDS011;36514;52.590;21.448;2024-03-07T13:26:53;11.57;;;10.48;;
50563;SDS011;36514;52.590;21.448;2024-03-07T13:37:03;9.30;;;7.30;;
50563;SDS011;36514;52.590;21.448;2024-03-07T13:46:59;13.04;;;11.79;;
50563;SDS011;36514;52.590;21.448;2024-03-07T13:57:05;13.95;;;12.53;;
50563;SDS011;36514;52.590;21.448;2024-03-07T14:07:05;11.05;;;9.82;;
50563;SDS011;36514;52.590;21.448;2024-03-07T14:37:23;15.18;;;10.52;;
50563;SDS011;36514;52.590;21.448;2024-03-07T14:47:20;13.77;;;11.92;;
50563;SDS011;36514;52.590;21.448;2024-03-07T14:57:10;10.32;;;8.75;;
50563;SDS011;36514;52.590;21.448;2024-03-07T15:07:05;11.85;;;10.09;;
50563;SDS011;36514;52.590;21.448;2024-03-07T15:17:00;13.02;;;10.57;;
50563;SDS011;36514;52.590;21.448;2024-03-07T15:26:54;14.12;;;11.24;;
50563;SDS011;36514;52.590;21.448;2024-03-07T15:36:46;16.16;;;11.65;;
50563;SDS011;36514;52.590;21.448;2024-03-07T15:46:44;16.64;;;11.56;;
50563;SDS011;36514;52.590;21.448;2024-03-07T15:56:31;10.80;;;8.70;;
50563;SDS011;36514;52.590;21.448;2024-03-07T16:06:19;19.88;;;11.13;;
50563;SDS011;36514;52.590;21.448;2024-03-07T16:16:14;17.29;;;11.70;;
50563;SDS011;36514;52.590;21.448;2024-03-07T16:26:04;29.08;;;9.55;;
50563;SDS011;36514;52.590;21.448;2024-03-07T16:35:58;20.16;;;12.18;;
50563;SDS011;36514;52.590;21.448;2024-03-07T16:45:49;16.05;;;9.77;;
50563;SDS011;36514;52.590;21.448;2024-03-07T16:55:45;22.34;;;12.85;;
50563;SDS011;36514;52.590;21.448;2024-03-07T17:05:41;55.32;;;25.39;;
50563;SDS011;36514;52.590;21.448;2024-03-07T17:15:37;50.88;;;26.18;;
50563;SDS011;36514;52.590;21.448;2024-03-07T17:25:36;79.12;;;36.08;;
50563;SDS011;36514;52.590;21.448;2024-03-07T17:35:32;54.95;;;29.08;;
50563;SDS011;36514;52.590;21.448;2024-03-07T17:45:28;60.44;;;31.27;;
50563;SDS011;36514;52.590;21.448;2024-03-07T17:55:24;58.67;;;30.63;;
50563;SDS011;36514;52.590;21.448;2024-03-07T18:05:20;56.25;;;28.91;;
50563;SDS011;36514;52.590;21.448;2024-03-07T18:15:19;64.62;;;32.62;;
50563;SDS011;36514;52.590;21.448;2024-03-07T18:25:14;65.55;;;32.94;;
50563;SDS011;36514;52.590;21.448;2024-03-07T18:35:10;82.74;;;40.19;;
50563;SDS011;36514;52.590;21.448;2024-03-07T18:45:05;89.20;;;42.77;;
